createdAt,value
2023-08-24T00:00:09.055Z,19.13
2023-08-24T00:02:43.082Z,19.30
2023-08-24T00:05:16.384Z,19.13
2023-08-24T00:07:50.524Z,19.08
2023-08-24T00:10:23.853Z,19.10
2023-08-24T00:12:57.001Z,19.07
2023-08-24T00:15:31.932Z,19.16
2023-08-24T00:18:06.131Z,19.17
2023-08-24T00:20:39.393Z,19.24
2023-08-24T00:23:12.724Z,19.26
2023-08-24T00:25:45.965Z,19.26
2023-08-24T00:28:19.125Z,19.35
2023-08-24T00:30:53.667Z,19.38
2023-08-24T00:33:26.904Z,19.39
2023-08-24T00:36:02.763Z,19.34
2023-08-24T00:38:36.060Z,19.35
2023-08-24T00:41:09.290Z,19.53
2023-08-24T00:43:42.501Z,19.39
2023-08-24T00:46:17.091Z,19.31
2023-08-24T00:48:50.733Z,19.20
2023-08-24T00:51:23.968Z,19.03
2023-08-24T00:53:59.566Z,18.86
2023-08-24T00:56:33.273Z,18.65
2023-08-24T00:59:06.967Z,18.65
2023-08-24T01:01:45.365Z,18.76
2023-08-24T01:04:20.418Z,18.80
2023-08-24T01:06:53.612Z,18.77
2023-08-24T01:09:27.083Z,18.73
2023-08-24T01:12:07.295Z,18.69
2023-08-24T01:14:51.522Z,18.80
2023-08-24T01:17:30.752Z,19.07
2023-08-24T01:20:06.969Z,18.99
2023-08-24T01:22:49.646Z,18.77
2023-08-24T01:25:35.600Z,18.73
2023-08-24T01:28:12.662Z,18.69
2023-08-24T01:30:46.798Z,18.67
2023-08-24T01:33:20.094Z,18.93
2023-08-24T01:35:53.390Z,18.99
2023-08-24T01:38:26.954Z,18.90
2023-08-24T01:41:13.596Z,18.90
2023-08-24T01:43:54.740Z,18.93
2023-08-24T01:46:30.248Z,18.97
2023-08-24T01:49:07.909Z,18.92
2023-08-24T01:51:44.345Z,18.99
2023-08-24T01:54:17.463Z,19.24
2023-08-24T01:56:50.688Z,19.14
2023-08-24T01:59:25.329Z,19.04
2023-08-24T02:01:58.556Z,19.13
2023-08-24T02:04:31.793Z,19.07
2023-08-24T02:07:05.013Z,18.96
2023-08-24T02:09:38.156Z,18.83
2023-08-24T02:12:11.369Z,18.80
2023-08-24T02:14:45.949Z,18.84
2023-08-24T02:17:19.480Z,18.94
2023-08-24T02:19:52.639Z,18.97
2023-08-24T02:22:25.848Z,19.00
2023-08-24T02:24:59.095Z,19.07
2023-08-24T02:27:32.257Z,19.13
2023-08-24T02:30:08.288Z,19.26
2023-08-24T02:32:44.768Z,19.50
2023-08-24T02:35:18.551Z,19.61
2023-08-24T02:37:58.134Z,19.74
2023-08-24T02:40:31.422Z,19.85
2023-08-24T02:43:05.670Z,19.91
2023-08-24T02:45:40.302Z,20.05
2023-08-24T02:48:13.492Z,20.00
2023-08-24T02:50:48.707Z,20.12
2023-08-24T02:53:21.864Z,20.20
2023-08-24T02:55:55.065Z,20.20
2023-08-24T02:58:28.718Z,20.06
2023-08-24T03:01:07.578Z,19.98
2023-08-24T03:03:40.855Z,19.86
2023-08-24T03:06:13.991Z,19.82
2023-08-24T03:08:47.164Z,19.77
2023-08-24T03:11:20.432Z,19.71
2023-08-24T03:13:53.552Z,19.68
2023-08-24T03:16:28.903Z,19.62
2023-08-24T03:19:02.185Z,19.75
2023-08-24T03:21:35.422Z,19.89
2023-08-24T03:24:12.201Z,20.04
2023-08-24T03:26:46.476Z,20.02
2023-08-24T03:29:19.714Z,20.00
2023-08-24T03:31:54.665Z,20.04
2023-08-24T03:34:28.461Z,20.06
2023-08-24T03:37:01.756Z,20.16
2023-08-24T03:39:34.965Z,20.15
2023-08-24T03:42:08.741Z,20.19
2023-08-24T03:44:41.914Z,20.28
2023-08-24T03:47:16.454Z,20.32
2023-08-24T03:49:49.719Z,20.19
2023-08-24T03:52:23.255Z,20.16
2023-08-24T03:54:58.845Z,20.19
2023-08-24T03:57:32.936Z,20.23
2023-08-24T04:00:08.819Z,20.16
2023-08-24T04:02:48.407Z,20.02
2023-08-24T04:05:30.021Z,19.86
2023-08-24T04:08:03.520Z,19.77
2023-08-24T04:10:36.694Z,19.61
2023-08-24T04:13:12.379Z,19.51
2023-08-24T04:15:45.576Z,19.32
2023-08-24T04:18:20.171Z,19.35
2023-08-24T04:20:54.612Z,19.39
2023-08-24T04:23:28.321Z,19.37
2023-08-24T04:26:01.529Z,19.32
2023-08-24T04:28:34.746Z,19.23
2023-08-24T04:31:08.236Z,19.28
2023-08-24T04:33:42.883Z,19.34
2023-08-24T04:36:16.436Z,19.44
2023-08-24T04:38:50.108Z,19.58
2023-08-24T04:41:23.365Z,19.51
2023-08-24T04:43:58.935Z,19.39
2023-08-24T04:46:32.182Z,19.38
2023-08-24T04:49:06.846Z,19.41
2023-08-24T04:51:40.060Z,19.48
2023-08-24T04:54:13.209Z,19.58
2023-08-24T04:56:46.416Z,19.62
2023-08-24T04:59:19.630Z,19.64
2023-08-24T05:01:52.864Z,19.75
2023-08-24T05:04:27.509Z,19.86
2023-08-24T05:07:01.333Z,19.82
2023-08-24T05:09:34.741Z,19.85
2023-08-24T05:12:08.851Z,19.81
2023-08-24T05:14:42.842Z,19.78
2023-08-24T05:17:16.022Z,19.72
2023-08-24T05:19:53.279Z,19.81
2023-08-24T05:22:26.502Z,19.96
2023-08-24T05:24:59.711Z,19.98
2023-08-24T05:27:33.707Z,19.93
2023-08-24T05:30:08.048Z,20.02
2023-08-24T05:32:41.525Z,20.06
2023-08-24T05:35:17.252Z,20.06
2023-08-24T05:37:50.740Z,20.06
2023-08-24T05:40:24.126Z,20.10
2023-08-24T05:42:57.267Z,20.13
2023-08-24T05:45:30.405Z,20.19
2023-08-24T05:48:04.458Z,20.23
2023-08-24T05:50:44.250Z,20.34
2023-08-24T05:53:17.424Z,20.44
2023-08-24T05:55:50.520Z,20.62
2023-08-24T05:58:23.688Z,20.90
2023-08-24T06:01:00.352Z,21.24
2023-08-24T06:03:33.661Z,21.81
2023-08-24T06:06:11.129Z,21.95
2023-08-24T06:08:44.617Z,22.41
2023-08-24T06:11:17.711Z,22.81
2023-08-24T06:13:50.862Z,23.11
2023-08-24T06:16:26.310Z,23.02
2023-08-24T06:18:59.473Z,23.41
2023-08-24T06:21:34.031Z,23.22
2023-08-24T06:24:07.430Z,23.42
2023-08-24T06:26:40.612Z,23.70
2023-08-24T06:29:13.994Z,23.85
2023-08-24T06:31:47.166Z,23.99
2023-08-24T06:34:20.423Z,24.06
2023-08-24T06:36:55.811Z,24.05
2023-08-24T06:39:28.984Z,24.07
2023-08-24T06:42:03.590Z,24.27
2023-08-24T06:44:37.883Z,24.38
2023-08-24T06:47:11.082Z,24.72
2023-08-24T06:49:44.393Z,24.88
2023-08-24T06:52:18.977Z,25.08
2023-08-24T06:54:54.788Z,25.32
2023-08-24T06:57:28.105Z,25.49
2023-08-24T07:00:01.396Z,25.52
2023-08-24T07:02:34.878Z,25.67
2023-08-24T07:05:09.943Z,25.83
2023-08-24T07:07:45.529Z,25.83
2023-08-24T07:10:18.982Z,25.62
2023-08-24T07:12:52.173Z,25.07
2023-08-24T07:15:25.591Z,24.78
2023-08-24T07:17:58.806Z,24.74
2023-08-24T07:20:31.958Z,24.74
2023-08-24T07:23:06.641Z,24.89
2023-08-24T07:25:39.766Z,25.11
2023-08-24T07:28:12.974Z,25.23
2023-08-24T07:30:46.329Z,25.42
2023-08-24T07:33:21.328Z,25.60
2023-08-24T07:35:54.485Z,25.67
2023-08-24T07:38:29.029Z,25.70
2023-08-24T07:41:02.400Z,25.83
2023-08-24T07:43:35.817Z,26.08
2023-08-24T07:46:09.306Z,26.18
2023-08-24T07:48:42.600Z,26.30
2023-08-24T07:51:15.827Z,26.47
2023-08-24T07:53:51.878Z,26.68
2023-08-24T07:56:25.154Z,27.25
2023-08-24T07:58:58.378Z,27.50
2023-08-24T08:01:31.824Z,27.76
2023-08-24T08:04:05.409Z,28.14
2023-08-24T08:06:38.659Z,28.38
2023-08-24T08:09:14.028Z,28.59
2023-08-24T08:11:47.811Z,28.62
2023-08-24T08:14:21.229Z,28.75
2023-08-24T08:16:54.442Z,28.91
2023-08-24T08:19:29.169Z,29.09
2023-08-24T08:22:02.337Z,29.31
2023-08-24T08:24:36.964Z,29.51
2023-08-24T08:27:10.399Z,29.90
2023-08-24T08:29:43.908Z,30.36
2023-08-24T08:32:17.069Z,30.48
2023-08-24T08:34:50.243Z,30.65
2023-08-24T08:37:23.458Z,30.69
2023-08-24T08:39:58.152Z,30.51
2023-08-24T08:42:32.314Z,30.49
2023-08-24T08:45:11.406Z,30.43
2023-08-24T08:47:44.685Z,30.55
2023-08-24T08:50:18.281Z,30.61
2023-08-24T08:52:51.428Z,30.62
2023-08-24T08:55:25.994Z,30.73
2023-08-24T08:58:02.724Z,30.94
2023-08-24T09:00:37.420Z,30.97
2023-08-24T09:03:11.535Z,30.97
2023-08-24T09:05:47.810Z,31.33
2023-08-24T09:08:21.316Z,31.67
2023-08-24T09:10:56.222Z,31.45
2023-08-24T09:13:33.622Z,31.34
2023-08-24T09:16:08.834Z,31.38
2023-08-24T09:18:45.300Z,31.45
2023-08-24T09:21:18.577Z,31.48
2023-08-24T09:23:55.879Z,31.48
2023-08-24T09:26:35.770Z,31.48
2023-08-24T09:29:14.431Z,31.54
2023-08-24T09:31:47.652Z,31.58
2023-08-24T09:34:22.521Z,31.78
2023-08-24T09:36:55.727Z,31.95
2023-08-24T09:39:28.900Z,31.85
2023-08-24T09:42:05.813Z,31.84
2023-08-24T09:44:38.956Z,31.53
2023-08-24T09:47:13.098Z,31.44
2023-08-24T09:49:47.976Z,31.60
2023-08-24T09:52:22.490Z,31.67
2023-08-24T09:54:56.643Z,31.55
2023-08-24T09:57:31.281Z,31.53
2023-08-24T10:00:11.005Z,31.58
2023-08-24T10:02:52.717Z,31.58
2023-08-24T10:08:03.951Z,30.97
2023-08-24T10:10:40.630Z,30.90
2023-08-24T10:13:23.054Z,30.69
2023-08-24T10:15:58.635Z,30.78
2023-08-24T10:18:34.597Z,30.80
2023-08-24T10:21:09.375Z,30.80
2023-08-24T10:23:45.666Z,30.80
2023-08-24T10:26:19.865Z,30.71
2023-08-24T10:28:55.554Z,30.75
2023-08-24T10:31:30.337Z,30.63
2023-08-24T10:34:05.058Z,30.36
2023-08-24T10:36:41.412Z,30.38
2023-08-24T10:39:14.917Z,30.18
2023-08-24T10:41:49.689Z,30.07
2023-08-24T10:44:26.430Z,29.94
2023-08-24T10:47:15.830Z,29.92
2023-08-24T10:50:02.193Z,29.77
2023-08-24T10:52:40.340Z,29.51
2023-08-24T10:55:28.096Z,28.78
2023-08-24T10:58:02.212Z,28.20
2023-08-24T11:00:36.819Z,27.47
2023-08-24T11:03:11.153Z,27.40
2023-08-24T11:05:45.039Z,27.19
2023-08-24T11:08:18.255Z,27.08
2023-08-24T11:10:51.816Z,26.72
2023-08-24T11:13:26.101Z,26.61
2023-08-24T11:16:05.840Z,26.38
2023-08-24T11:18:42.278Z,26.07
2023-08-24T11:21:16.204Z,25.63
2023-08-24T11:23:50.781Z,25.45
2023-08-24T11:26:24.034Z,25.25
2023-08-24T11:28:58.906Z,24.94
2023-08-24T11:31:34.819Z,24.64
2023-08-24T11:34:09.751Z,24.24
2023-08-24T11:36:48.379Z,23.96
2023-08-24T11:39:23.872Z,23.89
2023-08-24T11:42:01.687Z,23.93
2023-08-24T11:44:47.871Z,23.86
2023-08-24T11:47:24.844Z,23.80
2023-08-24T11:49:59.919Z,23.65
2023-08-24T11:52:37.180Z,23.52
2023-08-24T11:55:10.954Z,23.56
2023-08-24T11:57:44.750Z,23.69
2023-08-24T12:00:19.088Z,23.83
2023-08-24T12:02:54.142Z,24.06
2023-08-24T12:05:29.424Z,24.24
2023-08-24T12:08:02.698Z,24.16
2023-08-24T12:10:36.851Z,23.95
2023-08-24T12:13:12.887Z,23.83
2023-08-24T12:15:48.407Z,23.79
2023-08-24T12:18:23.046Z,24.14
2023-08-24T12:20:56.304Z,24.37
2023-08-24T12:23:31.721Z,24.38
2023-08-24T12:26:06.591Z,24.21
2023-08-24T12:28:39.758Z,24.06
2023-08-24T12:31:16.745Z,23.90
2023-08-24T12:34:02.475Z,24.00
2023-08-24T12:36:38.039Z,23.97
2023-08-24T12:39:15.052Z,23.85
2023-08-24T12:41:48.213Z,24.03
2023-08-24T12:44:21.326Z,24.10
2023-08-24T12:46:54.536Z,24.12
2023-08-24T12:49:29.122Z,24.38
2023-08-24T12:52:02.293Z,24.51
2023-08-24T12:54:35.518Z,24.67
2023-08-24T12:57:09.397Z,24.71
2023-08-24T12:59:42.667Z,24.74
2023-08-24T13:02:25.211Z,24.40
2023-08-24T13:05:05.456Z,24.09
2023-08-24T13:07:40.133Z,23.95
2023-08-24T13:10:14.009Z,23.87
2023-08-24T13:12:47.088Z,23.82
2023-08-24T13:15:21.221Z,23.95
2023-08-24T13:17:54.643Z,24.10
2023-08-24T13:20:29.319Z,24.14
2023-08-24T13:23:02.442Z,23.95
2023-08-24T13:25:35.530Z,23.65
2023-08-24T13:28:08.733Z,23.61
2023-08-24T13:30:43.934Z,23.46
2023-08-24T13:33:20.743Z,23.37
2023-08-24T13:35:55.215Z,23.41
2023-08-24T13:38:28.315Z,23.35
2023-08-24T13:41:04.707Z,23.26
2023-08-24T13:43:37.773Z,23.21
2023-08-24T13:46:10.887Z,23.02
2023-08-24T13:48:44.022Z,22.95
2023-08-24T13:51:19.172Z,22.74
2023-08-24T13:53:52.322Z,22.65
2023-08-24T13:56:25.407Z,22.63
2023-08-24T13:58:58.551Z,22.54
2023-08-24T14:01:31.704Z,22.47
2023-08-24T14:04:05.502Z,22.32
2023-08-24T14:06:40.149Z,22.29
2023-08-24T14:09:13.269Z,22.24
2023-08-24T14:11:46.439Z,22.07
2023-08-24T14:14:21.889Z,21.96
2023-08-24T14:16:58.335Z,21.89
2023-08-24T14:19:31.506Z,21.92
2023-08-24T14:22:06.052Z,21.88
2023-08-24T14:24:39.118Z,21.69
2023-08-24T14:27:12.242Z,21.63
2023-08-24T14:29:45.307Z,21.59
2023-08-24T14:32:18.940Z,21.54
2023-08-24T14:34:52.061Z,21.39
2023-08-24T14:37:26.701Z,21.39
2023-08-24T14:39:59.863Z,21.30
2023-08-24T14:42:32.952Z,21.20
2023-08-24T14:45:07.042Z,21.12
2023-08-24T14:47:40.686Z,21.03
2023-08-24T14:50:14.121Z,20.91
2023-08-24T14:52:48.764Z,20.98
2023-08-24T14:55:21.857Z,20.95
2023-08-24T14:57:56.328Z,20.95
2023-08-24T15:00:29.558Z,20.98
2023-08-24T15:03:05.871Z,21.04
2023-08-24T15:05:45.143Z,21.14
2023-08-24T15:08:19.712Z,21.08
2023-08-24T15:10:52.873Z,21.11
2023-08-24T15:13:26.101Z,21.12
2023-08-24T15:16:00.693Z,21.12
2023-08-24T15:18:33.850Z,21.12
2023-08-24T15:21:06.926Z,21.07
2023-08-24T15:23:41.390Z,21.07
2023-08-24T15:26:14.550Z,21.14
2023-08-24T15:29:10.337Z,21.14
2023-08-24T15:31:43.857Z,21.25
2023-08-24T15:34:17.037Z,21.31
2023-08-24T15:36:50.170Z,21.32
2023-08-24T15:39:25.127Z,21.31
2023-08-24T15:41:58.296Z,21.41
2023-08-24T15:44:31.468Z,21.46
2023-08-24T15:47:04.813Z,21.54
2023-08-24T15:49:38.719Z,21.63
2023-08-24T15:52:11.850Z,21.78
2023-08-24T15:54:46.412Z,21.81
2023-08-24T15:57:19.720Z,22.05
2023-08-24T15:59:52.943Z,22.32
2023-08-24T16:02:26.233Z,22.46
2023-08-24T16:04:59.475Z,22.56
2023-08-24T16:07:32.698Z,22.44
2023-08-24T16:10:08.258Z,22.56
2023-08-24T16:12:41.732Z,22.70
2023-08-24T16:15:18.116Z,22.87
2023-08-24T16:17:51.670Z,23.15
2023-08-24T16:20:25.103Z,23.08
2023-08-24T16:22:58.340Z,23.24
2023-08-24T16:25:33.392Z,23.35
2023-08-24T16:28:07.430Z,23.38
2023-08-24T16:30:42.995Z,23.41
2023-08-24T16:33:16.572Z,23.35
2023-08-24T16:35:50.143Z,23.49
2023-08-24T16:38:23.335Z,23.45
2023-08-24T16:40:58.305Z,23.45
2023-08-24T16:43:32.727Z,23.43
2023-08-24T16:46:05.907Z,23.38
2023-08-24T16:48:39.067Z,23.41
2023-08-24T16:51:12.232Z,23.38
2023-08-24T16:53:45.386Z,23.42
2023-08-24T16:56:19.937Z,23.62
2023-08-24T16:58:53.115Z,23.67
2023-08-24T17:01:26.442Z,23.65
2023-08-24T17:03:59.692Z,23.66
2023-08-24T17:06:35.394Z,23.65
2023-08-24T17:09:10.023Z,23.73
2023-08-24T17:11:44.596Z,23.66
2023-08-24T17:14:17.795Z,23.66
2023-08-24T17:16:51.396Z,23.61
2023-08-24T17:19:24.497Z,23.49
2023-08-24T17:21:57.555Z,23.61
2023-08-24T17:24:30.639Z,23.63
2023-08-24T17:27:05.228Z,23.56
2023-08-24T17:29:38.330Z,23.43
2023-08-24T17:32:11.413Z,23.35
2023-08-24T17:34:44.512Z,23.31
2023-08-24T17:37:17.632Z,23.18
2023-08-24T17:39:50.772Z,23.19
2023-08-24T17:42:25.221Z,23.21
2023-08-24T17:44:58.350Z,23.24
2023-08-24T17:47:31.478Z,23.32
2023-08-24T17:50:06.078Z,23.32
2023-08-24T17:52:39.165Z,23.38
2023-08-24T17:55:12.754Z,23.46
2023-08-24T17:57:47.282Z,23.51
2023-08-24T18:00:20.930Z,23.52
2023-08-24T18:02:54.126Z,23.48
2023-08-24T18:05:27.177Z,23.38
2023-08-24T18:08:00.538Z,23.19
2023-08-24T18:10:33.826Z,23.05
2023-08-24T18:13:08.437Z,22.90
2023-08-24T18:15:41.696Z,22.78
2023-08-24T18:18:14.861Z,22.84
2023-08-24T18:20:48.041Z,22.65
2023-08-24T18:23:21.136Z,22.61
2023-08-24T18:25:54.357Z,22.49
2023-08-24T18:28:28.848Z,22.46
2023-08-24T18:31:03.035Z,22.41
2023-08-24T18:33:36.306Z,22.49
2023-08-24T18:36:09.508Z,22.19
2023-08-24T18:38:42.709Z,22.09
2023-08-24T18:41:15.966Z,21.99
2023-08-24T18:43:50.462Z,21.99
2023-08-24T18:46:23.734Z,22.05
2023-08-24T18:48:56.910Z,21.95
2023-08-24T18:51:30.393Z,21.68
2023-08-24T18:54:03.624Z,21.52
2023-08-24T18:56:36.757Z,21.65
2023-08-24T18:59:11.334Z,21.52
2023-08-24T19:01:44.571Z,21.49
2023-08-24T19:04:17.789Z,21.37
2023-08-24T19:06:53.433Z,21.14
2023-08-24T19:09:26.589Z,21.08
2023-08-24T19:11:59.751Z,21.08
2023-08-24T19:14:36.614Z,21.05
2023-08-24T19:17:09.946Z,21.04
2023-08-24T19:19:43.065Z,20.98
2023-08-24T19:22:16.237Z,21.01
2023-08-24T19:24:49.422Z,21.05
2023-08-24T19:27:24.328Z,20.90
2023-08-24T19:29:59.369Z,21.04
2023-08-24T19:32:32.583Z,20.91
2023-08-24T19:35:06.413Z,20.93
2023-08-24T19:37:39.574Z,20.85
2023-08-24T19:40:13.513Z,20.77
2023-08-24T19:42:47.516Z,20.70
2023-08-24T19:45:22.075Z,20.56
2023-08-24T19:47:55.502Z,20.50
2023-08-24T19:50:29.693Z,20.40
2023-08-24T19:53:03.325Z,20.56
2023-08-24T19:55:36.433Z,20.47
2023-08-24T19:58:09.702Z,20.47
2023-08-24T20:00:44.251Z,20.46
2023-08-24T20:03:17.595Z,20.56
2023-08-24T20:05:55.603Z,20.37
2023-08-24T20:08:29.072Z,20.32
2023-08-24T20:11:02.737Z,20.36
2023-08-24T20:13:35.853Z,20.26
2023-08-24T20:16:10.391Z,20.09
2023-08-24T20:18:44.979Z,20.02
2023-08-24T20:21:18.233Z,20.00
2023-08-24T20:23:51.498Z,20.02
2023-08-24T20:26:25.039Z,20.06
2023-08-24T20:28:58.200Z,20.10
2023-08-24T20:31:35.299Z,20.18
2023-08-24T20:34:08.514Z,20.20
2023-08-24T20:36:41.716Z,20.40
2023-08-24T20:39:14.918Z,20.37
2023-08-24T20:41:48.396Z,20.33
2023-08-24T20:44:22.079Z,20.08
2023-08-24T20:46:56.624Z,20.04
2023-08-24T20:49:30.595Z,20.22
2023-08-24T20:52:04.579Z,20.18
2023-08-24T20:54:37.724Z,20.00
2023-08-24T20:57:10.929Z,19.93
2023-08-24T20:59:47.229Z,19.99
2023-08-24T21:02:21.737Z,19.98
2023-08-24T21:04:56.000Z,20.08
2023-08-24T21:07:30.095Z,19.98
2023-08-24T21:10:03.507Z,19.99
2023-08-24T21:12:36.634Z,20.09
2023-08-24T21:15:10.575Z,20.04
2023-08-24T21:17:45.189Z,19.96
2023-08-24T21:20:20.568Z,19.99
2023-08-24T21:22:53.799Z,20.15
2023-08-24T21:25:26.975Z,20.20
2023-08-24T21:28:00.104Z,20.28
2023-08-24T21:30:35.511Z,20.20
2023-08-24T21:33:10.098Z,20.20
2023-08-24T21:35:43.364Z,20.16
2023-08-24T21:38:16.462Z,20.25
2023-08-24T21:40:50.625Z,20.09
2023-08-24T21:43:24.035Z,19.99
2023-08-24T21:45:57.872Z,19.88
2023-08-24T21:48:32.458Z,20.02
2023-08-24T21:51:05.622Z,20.06
2023-08-24T21:53:38.944Z,19.91
2023-08-24T21:56:12.153Z,19.91
2023-08-24T21:58:45.318Z,19.95
2023-08-24T22:01:19.075Z,19.95
2023-08-24T22:03:53.663Z,19.93
2023-08-24T22:06:26.842Z,20.09
2023-08-24T22:08:59.949Z,20.02
2023-08-24T22:11:33.147Z,20.10
2023-08-24T22:14:06.336Z,20.04
2023-08-24T22:16:39.567Z,20.05
2023-08-24T22:19:24.881Z,20.06
2023-08-24T22:22:00.099Z,20.06
2023-08-24T22:24:33.268Z,20.08
2023-08-24T22:27:07.040Z,20.02
2023-08-24T22:29:40.192Z,19.99
2023-08-24T22:32:13.423Z,19.86
2023-08-24T22:34:47.922Z,19.75
2023-08-24T22:37:21.279Z,19.69
2023-08-24T22:39:55.351Z,19.68
2023-08-24T22:42:28.554Z,19.67
2023-08-24T22:45:01.659Z,19.72
2023-08-24T22:47:35.530Z,19.65
2023-08-24T22:50:12.129Z,19.65
2023-08-24T22:52:45.526Z,19.64
2023-08-24T22:55:18.721Z,19.72
2023-08-24T22:57:52.048Z,19.74
2023-08-24T23:00:25.504Z,19.75
2023-08-24T23:02:58.688Z,19.72
2023-08-24T23:05:33.521Z,19.65
2023-08-24T23:08:08.157Z,19.62
2023-08-24T23:10:41.381Z,19.64
2023-08-24T23:13:14.529Z,19.68
2023-08-24T23:15:47.752Z,19.64
2023-08-24T23:18:20.962Z,19.53
2023-08-24T23:20:55.506Z,19.47
2023-08-24T23:23:29.253Z,19.41
2023-08-24T23:26:02.403Z,19.41
2023-08-24T23:28:35.568Z,19.48
2023-08-24T23:31:08.798Z,19.46
2023-08-24T23:33:42.049Z,19.47
2023-08-24T23:36:16.740Z,19.38
2023-08-24T23:38:49.881Z,19.44
2023-08-24T23:41:22.986Z,19.41
2023-08-24T23:43:56.153Z,19.50
2023-08-24T23:46:29.637Z,19.57
2023-08-24T23:49:02.823Z,19.57
2023-08-24T23:51:37.319Z,19.59
2023-08-24T23:54:10.650Z,19.50
2023-08-24T23:56:43.848Z,19.32
2023-08-24T23:59:17.046Z,19.30
